Latest Weather Observations for Wulungurru (Kintore)

IDD60801

Issued at 5:01 pm CST Wednesday 18 January 2017 (issued every 30 minutes, with the page automatically refreshed every 10 minutes)

About weather observations | Map of weather stations | Latest weather observations for NT | Other Formats
Station Details ID: 015664 Name: WALUNGURRU AIRPORT Lat: -23.27 Lon: 129.38 Height: 454.3 m
Data from the previous 72 hours. | See also: Recent months at Wulungurru (Kintore)
Date/Time
CST
Temp
°C
App
Temp
°C
Dew
Point
°C
Rel
Hum
%
Delta-T
°C
Wind Press
QNH
hPa
Press
MSL
hPa
Rain since
9am
mm
Dir  Spd
km/h
Gust
km/h
Spd
kts
Gust
kts
18/05:00pm 31.8 33.2 22.8 59 6.3 NNE 20 26 11 14 1004.9 - 3.0
18/04:30pm 31.5 32.5 22.8 60 6.1 NNE 22 30 12 16 1004.9 - 3.0
18/04:00pm 31.8 33.6 23.3 60 6.0 NNE 19 28 10 15 1005.2 - 3.0
18/03:30pm 31.8 34.7 24.4 65 5.3 N 17 22 9 12 1005.4 - 3.0
18/03:00pm 31.2 34.0 23.6 64 5.4 NNE 15 20 8 11 1005.6 1002.0 3.0
18/02:30pm 30.5 34.4 24.2 69 4.5 N 11 15 6 8 1006.1 - 3.0
18/02:00pm 30.0 34.3 24.9 74 3.6 N 11 15 6 8 1006.7 - 3.0
18/01:30pm 28.4 33.3 26.4 89 1.4 N 13 17 7 9 1006.6 - 2.8
18/01:00pm 27.2 28.5 24.1 83 2.2 E 24 32 13 17 1007.4 - 1.6
18/12:30pm 29.8 32.4 24.0 71 4.1 NNE 17 22 9 12 1007.8 - 0.0
18/12:00pm 30.6 32.0 23.5 66 5.0 NE 22 35 12 19 1007.9 1004.3 0.0
18/11:30am 31.0 33.3 24.4 68 4.7 NE 20 30 11 16 1008.1 - 0.0
18/11:00am 29.9 31.6 23.1 67 4.7 E 19 24 10 13 1008.3 - 0.0
18/10:30am 29.3 31.6 23.5 71 4.1 ENE 17 22 9 12 1008.5 - 0.0
18/10:00am 29.5 32.2 23.4 69 4.3 NE 15 20 8 11 1008.2 - 0.0
18/09:30am 29.5 32.1 23.9 72 3.9 NE 17 20 9 11 1008.1 - 0.0
18/09:00am 28.5 30.8 24.1 77 3.1 ENE 19 24 10 13 1008.2 1004.7 2.4
18/08:30am 28.4 31.1 24.8 81 2.6 ENE 19 22 10 12 1008.1 - 2.4
18/08:00am 27.9 31.0 24.1 80 2.7 E 15 20 8 11 1008.1 - 2.4
18/07:30am 26.1 33.3 26.1 100 0.0 CALM 0 6 0 3 1007.9 - 2.4
18/07:00am 25.7 31.5 25.7 100 0.0 N 6 7 3 4 1007.7 - 2.4
18/06:30am 25.7 30.9 25.7 100 0.0 ESE 9 13 5 7 1007.2 - 2.4
18/06:00am 25.3 30.8 25.3 100 0.0 SSE 6 7 3 4 1006.5 1003.0 2.4
18/05:30am 25.3 30.8 25.3 100 0.0 SW 6 6 3 3 1006.2 - 2.4
18/05:00am 25.3 30.8 25.3 100 0.0 S 6 7 3 4 1006.1 - 2.4
18/04:30am 25.5 32.3 25.5 100 0.0 CALM 0 6 0 3 1005.9 - 2.4
18/04:00am 25.6 32.4 25.6 100 0.0 CALM 0 0 0 0 1006.0 - 2.4
18/03:30am 25.7 31.5 25.7 100 0.0 NE 6 7 3 4 1006.3 - 2.4
18/03:00am 26.0 31.4 26.0 100 0.0 N 9 11 5 6 1006.2 1002.7 2.4
18/02:30am 26.2 31.6 25.5 96 0.5 NNE 7 9 4 5 1006.8 - 2.4
18/02:00am 26.4 32.0 25.4 94 0.7 N 6 7 3 4 1006.9 - 2.4
18/01:30am 26.3 31.6 24.9 92 1.0 E 6 7 3 4 1006.9 - 2.4
18/01:00am 26.5 31.6 24.9 91 1.1 NNE 7 7 4 4 1007.3 - 2.4
18/12:30am 26.3 32.6 24.7 91 1.1 CALM 0 0 0 0 1007.8 - 2.4
18/12:00am 26.3 31.9 24.2 88 1.5 NE 2 6 1 3 1008.1 1004.5 2.4
 
Date/Time
CST
Temp
°C
App
Temp
°C
Dew
Point
°C
Rel
Hum
%
Delta-T
°C
Wind Press
QNH
hPa
Press
MSL
hPa
Rain since
9am
mm
Dir  Spd
km/h
Gust
km/h
Spd
kts
Gust
kts
17/11:30pm 26.3 30.5 24.7 91 1.1 NNW 11 19 6 10 1007.9 - 2.4
17/11:00pm 26.4 32.0 25.4 94 0.7 W 6 7 3 4 1007.7 - 2.4
17/10:30pm 26.4 32.0 24.8 91 1.1 WNW 4 9 2 5 1007.7 - 2.4
17/10:00pm 26.4 31.9 24.1 87 1.6 S 2 6 1 3 1007.3 - 2.4
17/09:30pm 26.5 31.6 24.0 86 1.7 ESE 4 6 2 3 1007.3 - 2.4
17/09:00pm 26.2 29.3 24.1 88 1.5 E 15 20 8 11 1007.6 1004.0 2.4
17/08:30pm 26.4 30.5 25.2 93 0.9 NE 13 17 7 9 1007.6 - 2.0
17/08:00pm 25.2 30.4 23.6 91 1.1 E 2 7 1 4 1006.9 - 1.8
17/07:30pm 26.0 28.6 24.6 92 1.0 SSE 19 26 10 14 1007.4 - 1.0
17/07:00pm 28.4 32.8 23.5 75 3.4 WNW 6 11 3 6 1006.3 - 0.0
17/06:30pm 28.6 32.9 24.2 77 3.1 WNW 9 11 5 6 1005.5 - 0.0
17/06:00pm 28.5 31.8 23.9 76 3.2 NNW 13 17 7 9 1005.0 1001.4 0.0
17/05:30pm 28.5 30.2 24.1 77 3.1 N 22 28 12 15 1004.3 - 0.0
17/05:07pm 27.6 27.7 24.0 81 2.5 N 30 48 16 26 1004.1 - 0.0
17/05:00pm 27.5 26.3 23.9 81 2.5 N 37 48 20 26 1004.0 - 0.0
17/04:58pm 27.5 25.6 23.5 79 2.8 N 39 48 21 26 1004.0 - 0.0
17/04:49pm 30.1 29.0 22.8 65 5.1 NNE 33 41 18 22 1004.5 - 0.0
17/04:30pm 35.4 36.3 20.1 40 10.4 S 15 24 8 13 1003.7 - 0.0
17/04:00pm 36.2 37.2 18.7 35 11.7 S 11 19 6 10 1003.5 - 0.0
17/03:30pm 36.5 37.1 19.4 36 11.5 SE 15 24 8 13 1003.9 - 0.0
17/03:00pm 37.3 37.8 19.3 35 12.2 SSE 15 22 8 12 1003.9 1000.3 0.0
17/02:30pm 36.2 37.1 20.0 38 11.0 SSE 15 24 8 13 1004.7 - 0.0
17/02:00pm 34.9 36.2 20.8 43 9.6 S 15 22 8 12 1005.3 - 0.0
17/01:30pm 36.3 37.4 20.5 39 10.8 S 15 26 8 14 1005.8 - 0.0
17/01:00pm 35.1 37.8 21.4 45 9.5 S 9 19 5 10 1006.3 - 0.0
17/12:30pm 34.5 36.7 21.9 48 8.7 SW 13 26 7 14 1006.8 - 0.0
17/12:00pm 34.0 36.1 22.4 50 8.1 SW 15 22 8 12 1007.5 1003.9 0.0
17/11:30am 33.1 35.4 22.8 54 7.2 SW 15 22 8 12 1007.9 - 0.0
17/11:00am 32.1 34.5 23.6 60 6.0 SW 17 26 9 14 1008.3 - 0.0
17/10:30am 31.3 33.9 23.9 64 5.2 WSW 17 26 9 14 1008.7 - 0.0
17/10:00am 30.5 33.5 22.7 63 5.4 W 11 24 6 13 1008.7 - 0.0
17/09:30am 30.2 34.7 23.9 69 4.4 W 7 11 4 6 1008.6 - 0.0
17/09:00am 28.6 32.9 23.7 75 3.4 W 7 11 4 6 1008.5 1005.0 -
17/08:30am 27.7 31.9 23.1 76 3.2 S 6 9 3 5 1008.2 - -
17/08:00am 27.1 30.8 23.3 80 2.6 S 9 11 5 6 1008.0 - -
17/07:30am 26.3 30.5 23.4 84 2.0 SE 7 11 4 6 1007.9 - -
17/07:00am 26.2 29.1 23.1 83 2.1 SSE 13 15 7 8 1007.6 - -
17/06:30am 26.2 29.7 22.9 82 2.3 SSE 9 13 5 7 1007.2 - -
17/06:00am 26.3 29.8 22.8 81 2.4 SSE 9 13 5 7 1006.7 1003.2 -
17/05:30am 26.4 29.8 22.7 80 2.5 SSE 9 13 5 7 1006.3 - -
17/05:00am 26.3 29.2 22.4 79 2.7 SSE 11 15 6 8 1006.0 - -
17/04:30am 25.9 29.0 22.8 83 2.1 SSE 11 15 6 8 1005.9 - -
17/04:00am 25.6 28.5 22.5 83 2.1 SSE 11 15 6 8 1005.8 - -
17/03:30am 25.9 29.0 22.2 80 2.5 SSE 9 13 5 7 1005.8 - -
17/03:00am 25.7 28.3 22.6 83 2.1 SSE 13 15 7 8 1005.9 1002.3 0.0
17/02:30am 25.7 29.3 23.0 85 1.9 S 9 11 5 6 1006.0 - -
17/02:00am 25.8 29.6 22.7 83 2.1 S 7 7 4 4 1006.2 - -
17/01:30am 25.3 29.4 23.2 88 1.4 SSW 7 9 4 5 1006.5 - -
17/01:00am 25.9 28.9 23.4 86 1.7 WSW 13 17 7 9 1006.8 - -
17/12:30am 25.8 28.9 22.9 84 2.0 WSW 11 13 6 7 1007.3 - -
17/12:00am 26.1 29.3 23.0 83 2.1 WSW 11 15 6 8 1007.8 1004.2 -
 
Date/Time
CST
Temp
°C
App
Temp
°C
Dew
Point
°C
Rel
Hum
%
Delta-T
°C
Wind Press
QNH
hPa
Press
MSL
hPa
Rain since
9am
mm
Dir  Spd
km/h
Gust
km/h
Spd
kts
Gust
kts
16/11:30pm 26.4 30.0 23.7 85 1.9 SW 11 15 6 8 1007.9 - -
16/11:00pm 26.5 30.4 24.2 87 1.6 SW 11 13 6 7 1007.9 - -
16/10:30pm 26.8 31.3 24.6 88 1.6 WSW 9 11 5 6 1007.8 - -
16/10:00pm 27.2 31.1 24.3 84 2.0 W 11 13 6 7 1007.5 - -
16/09:30pm 27.5 32.1 24.1 82 2.4 WSW 7 11 4 6 1007.0 - -
16/09:00pm 27.9 32.1 24.1 80 2.7 WSW 9 9 5 5 1006.8 1003.3 0.0
16/08:30pm 28.2 33.0 24.4 80 2.7 SW 7 9 4 5 1006.5 - -
16/08:00pm 28.9 33.0 23.3 72 3.9 WSW 7 9 4 5 1006.0 - -
16/07:30pm 30.0 33.4 22.7 65 5.1 WSW 9 11 5 6 1005.9 - -
16/07:00pm 30.9 33.4 22.5 61 5.8 W 13 17 7 9 1006.1 - -
16/06:30pm 31.7 33.0 22.4 58 6.4 W 19 24 10 13 1006.2 - -
16/06:00pm 32.4 34.1 23.1 58 6.5 W 19 24 10 13 1006.0 1002.4 -
16/05:30pm 32.4 33.5 23.6 59 6.2 W 24 28 13 15 1005.8 - -
16/05:00pm 34.7 35.5 19.1 39 10.4 NE 13 20 7 11 1005.9 - -
16/04:30pm 34.9 34.9 18.9 39 10.7 NE 17 24 9 13 1006.0 - -
16/03:30pm 35.2 35.3 19.9 40 10.4 NNE 19 28 10 15 1006.5 - 0.2
16/03:00pm 34.9 36.2 20.8 43 9.7 ENE 15 22 8 12 1006.6 1003.1 0.2
16/02:30pm 34.4 35.0 21.1 45 9.1 NE 19 30 10 16 1006.7 - 0.2
16/02:00pm 33.2 33.3 20.0 45 8.9 ENE 19 28 10 15 1007.3 - 0.2
16/01:30pm 33.4 32.7 20.2 46 8.9 NE 24 33 13 18 1007.7 - 0.2
16/01:00pm 33.2 32.5 21.0 48 8.3 ENE 26 35 14 19 1008.3 - 0.2
16/12:30pm 32.5 33.7 21.4 52 7.6 NE 17 26 9 14 1008.5 - 0.2
16/12:00pm 31.4 33.0 22.1 57 6.4 NE 17 26 9 14 1008.9 1005.4 0.2
16/11:30am 30.5 33.7 23.7 67 4.8 NE 13 19 7 10 1009.6 - 0.2
16/11:00am 30.2 33.2 23.4 67 4.8 ENE 13 24 7 13 1009.9 - 0.2
16/10:30am 29.0 33.9 23.7 73 3.7 ENE 4 11 2 6 1010.1 - 0.0
16/10:00am 27.4 32.0 23.8 81 2.5 S 6 9 3 5 1010.4 - 0.0
16/09:30am 26.4 30.7 23.7 85 1.9 SSE 7 9 4 5 1010.4 - 0.0

Other Formats:

Comma delimited format used in spreadsheet applications
http://www.bom.gov.au/fwo/IDD60801/IDD60801.94321.axf

JavaScript Object Notation format (JSON) in row-major order
http://www.bom.gov.au/fwo/IDD60801/IDD60801.94321.json